Time;durP1;ratioP1;P1;durP2;ratioP2;P2;SDS_P1;SDS_P2;PMS_P1;PMS_P2;Temp;Humidity;BMP_temperature;BMP_pressure;BME280_temperature;BME280_humidity;BME280_pressure;Samples;Min_cycle;Max_cycle;Signal;HPM_P1;HPM_P2
2024/02/27 00:00:57;;;;;;;0.60;0.30;;;10.30;1.00;;;;;;5055399;28;20468;-59
2024/02/27 00:03:24;;;;;;;0.40;0.30;;;10.30;90.20;;;;;;5055877;28;20528;-59
2024/02/27 00:05:51;;;;;;;0.40;0.20;;;10.20;35.30;;;;;;5056590;28;20532;-59
2024/02/27 00:08:18;;;;;;;0.55;0.30;;;10.20;99.90;;;;;;5055882;28;20432;-59
2024/02/27 00:10:45;;;;;;;0.50;0.20;;;10.20;99.90;;;;;;5054593;28;20520;-58
2024/02/27 00:13:12;;;;;;;0.50;0.30;;;10.20;1.00;;;;;;5055469;28;20558;-59
2024/02/27 00:15:40;;;;;;;0.40;0.20;;;10.30;99.90;;;;;;5055064;28;20878;-59
2024/02/27 00:18:07;;;;;;;0.40;0.20;;;10.20;99.90;;;;;;5054906;28;20862;-60
2024/02/27 00:20:34;;;;;;;0.98;0.20;;;10.20;99.90;;;;;;5059653;28;20524;-60
2024/02/27 00:23:01;;;;;;;0.60;0.20;;;10.20;99.90;;;;;;5055369;28;20494;-59
2024/02/27 00:25:28;;;;;;;0.40;0.20;;;10.20;99.90;;;;;;5055062;28;20441;-60
2024/02/27 00:27:55;;;;;;;0.50;0.20;;;10.10;99.90;;;;;;5055619;28;20467;-59
2024/02/27 00:30:21;;;;;;;0.40;0.20;;;10.20;1.00;;;;;;5053796;28;20520;-59
2024/02/27 00:32:50;;;;;;;0.50;0.20;;;10.20;99.90;;;;;;5058720;28;20509;-59
2024/02/27 00:35:17;;;;;;;0.40;0.20;;;10.30;99.90;;;;;;5059409;28;20436;-59
2024/02/27 00:37:43;;;;;;;0.50;0.20;;;10.30;99.90;;;;;;5059037;28;20519;-59
2024/02/27 00:40:12;;;;;;;0.70;0.20;;;10.30;99.90;;;;;;5058867;28;20524;-59
2024/02/27 00:42:39;;;;;;;0.40;0.20;;;10.20;99.90;;;;;;5058557;28;20511;-59
2024/02/27 00:45:06;;;;;;;0.45;0.20;;;10.10;1.00;;;;;;5059123;28;20922;-60
2024/02/27 00:47:33;;;;;;;0.50;0.22;;;10.00;1.00;;;;;;5059301;28;20429;-60
2024/02/27 00:50:01;;;;;;;0.50;0.20;;;10.00;1.00;;;;;;5058929;28;20448;-59
2024/02/27 00:52:28;;;;;;;0.60;0.20;;;10.10;1.00;;;;;;5057703;28;20425;-59
2024/02/27 00:54:55;;;;;;;0.50;0.20;;;10.10;1.00;;;;;;5056965;28;20457;-60
2024/02/27 00:57:22;;;;;;;0.50;0.20;;;10.00;1.00;;;;;;5058620;28;20708;-59
2024/02/27 00:59:49;;;;;;;1.00;0.20;;;10.10;1.00;;;;;;5058048;28;20836;-59
2024/02/27 01:02:16;;;;;;;0.40;0.20;;;10.10;1.00;;;;;;5058398;28;20429;-59
2024/02/27 01:04:43;;;;;;;0.60;0.20;;;10.00;1.00;;;;;;5058631;28;20445;-59
2024/02/27 01:07:11;;;;;;;0.55;0.28;;;10.00;99.90;;;;;;5059294;28;20472;-59
2024/02/27 01:09:38;;;;;;;0.40;0.20;;;9.90;99.90;;;;;;5058543;28;20468;-59
2024/02/27 01:12:06;;;;;;;0.50;0.27;;;10.00;99.90;;;;;;5058573;28;20468;-59
2024/02/27 01:14:33;;;;;;;0.40;0.20;;;10.00;99.90;;;;;;5058193;28;20425;-59
2024/02/27 01:17:00;;;;;;;0.50;0.20;;;10.00;99.90;;;;;;5058046;28;20425;-60
2024/02/27 01:19:27;;;;;;;0.70;0.20;;;10.00;99.90;;;;;;5068300;28;20429;-60
2024/02/27 01:21:55;;;;;;;0.40;0.20;;;9.90;99.90;;;;;;5076906;28;20498;-59
2024/02/27 01:24:24;;;;;;;0.50;0.20;;;9.90;99.90;;;;;;5075741;28;20498;-59
2024/02/27 01:26:51;;;;;;;0.40;0.20;;;9.90;1.00;;;;;;5057884;28;20904;-59
2024/02/27 01:29:17;;;;;;;0.40;0.20;;;10.00;1.00;;;;;;5057970;28;20443;-60
2024/02/27 01:31:44;;;;;;;0.50;0.20;;;10.10;1.00;;;;;;5058441;28;21033;-60
2024/02/27 01:34:11;;;;;;;0.50;0.20;;;10.10;99.90;;;;;;5057491;28;20440;-59
2024/02/27 01:36:38;;;;;;;0.40;0.20;;;10.00;1.00;;;;;;5057122;28;20584;-59
2024/02/27 01:39:06;;;;;;;0.40;0.20;;;10.00;1.00;;;;;;5058224;28;20878;-59
2024/02/27 01:41:35;;;;;;;0.50;0.20;;;10.10;1.00;;;;;;5058419;28;20428;-59
2024/02/27 01:44:02;;;;;;;0.40;0.20;;;10.00;1.00;;;;;;5056738;28;21799;-59
2024/02/27 01:46:30;;;;;;;0.70;0.20;;;9.90;99.90;;;;;;5057329;28;21015;-59
2024/02/27 01:48:58;;;;;;;0.95;0.30;;;9.80;1.00;;;;;;5057076;28;20941;-59
2024/02/27 01:51:26;;;;;;;0.90;0.30;;;9.80;1.00;;;;;;5057478;28;20715;-59
2024/02/27 01:53:56;;;;;;;0.80;0.30;;;9.70;4.10;;;;;;5057277;28;20855;-59
2024/02/27 01:56:24;;;;;;;0.57;0.30;;;9.70;99.90;;;;;;5057013;28;20437;-59
2024/02/27 01:58:53;;;;;;;0.60;0.30;;;9.80;99.90;;;;;;5056376;28;20890;-59
2024/02/27 02:01:21;;;;;;;0.70;0.40;;;9.70;99.90;;;;;;5056828;28;20421;-59
2024/02/27 02:03:50;;;;;;;0.63;0.40;;;9.70;99.90;;;;;;5056840;28;20531;-59
2024/02/27 02:06:18;;;;;;;0.90;0.32;;;9.70;99.90;;;;;;5056740;28;20432;-59
2024/02/27 02:08:45;;;;;;;0.73;0.40;;;9.70;99.90;;;;;;5058017;28;20744;-59
2024/02/27 02:11:14;;;;;;;0.50;0.30;;;9.70;99.90;;;;;;5057337;28;20519;-64
2024/02/27 02:13:41;;;;;;;0.50;0.40;;;9.70;1.00;;;;;;5056390;28;20486;-58
2024/02/27 02:16:09;;;;;;;0.60;0.35;;;9.70;99.90;;;;;;5056795;28;20488;-59
2024/02/27 02:18:36;;;;;;;0.80;0.32;;;9.80;99.90;;;;;;5066400;28;20924;-58
2024/02/27 02:21:05;;;;;;;0.90;0.40;;;9.70;99.90;;;;;;5060794;28;20532;-59
2024/02/27 02:23:32;;;;;;;0.90;0.50;;;9.70;1.00;;;;;;5056593;28;20438;-59
2024/02/27 02:26:00;;;;;;;0.90;0.45;;;9.60;1.00;;;;;;5057044;28;20472;-59
2024/02/27 02:28:27;;;;;;;0.73;0.40;;;9.50;1.00;;;;;;5056279;28;20435;-59
2024/02/27 02:30:54;;;;;;;0.80;0.50;;;9.40;1.00;;;;;;5056182;28;20504;-59
2024/02/27 02:33:21;;;;;;;0.90;0.50;;;9.40;99.90;;;;;;5055182;28;20450;-59
2024/02/27 02:35:49;;;;;;;1.13;0.50;;;9.40;99.90;;;;;;5055054;28;21030;-59
2024/02/27 02:38:17;;;;;;;1.10;0.60;;;9.60;99.90;;;;;;5055276;28;20441;-59
2024/02/27 02:40:44;;;;;;;1.40;0.60;;;9.60;1.00;;;;;;5056381;28;20516;-60
2024/02/27 02:43:11;;;;;;;1.10;0.70;;;9.40;99.90;;;;;;5056326;28;20879;-59
2024/02/27 02:45:39;;;;;;;1.20;0.70;;;9.30;99.90;;;;;;5036456;28;20852;-59
2024/02/27 02:48:07;;;;;;;1.10;0.70;;;9.20;99.90;;;;;;5035954;28;20437;-60
2024/02/27 02:50:35;;;;;;;1.40;0.70;;;9.10;99.90;;;;;;5036751;28;20870;-60
2024/02/27 02:53:01;;;;;;;1.60;0.80;;;9.20;99.90;;;;;;5036889;28;20449;-60
2024/02/27 02:55:30;;;;;;;1.20;0.77;;;9.10;99.90;;;;;;5035231;28;20525;-59
2024/02/27 02:57:57;;;;;;;1.30;0.70;;;9.10;99.90;;;;;;5036071;28;20455;-60
2024/02/27 03:00:24;;;;;;;1.80;0.70;;;9.20;63.10;;;;;;5037701;28;20826;-59
2024/02/27 03:02:50;;;;;;;2.60;0.90;;;9.30;1.00;;;;;;5056174;28;20506;-60
2024/02/27 03:05:17;;;;;;;1.50;0.77;;;9.30;1.00;;;;;;5056504;28;20438;-60
2024/02/27 03:07:44;;;;;;;1.40;0.80;;;9.30;99.90;;;;;;5055765;28;20871;-59
2024/02/27 03:10:11;;;;;;;1.55;0.80;;;9.40;99.90;;;;;;5056510;28;20704;-59
2024/02/27 03:12:44;;;;;;;1.67;0.80;;;9.40;99.90;;;;;;5055905;28;20501;-59
2024/02/27 03:15:11;;;;;;;1.80;0.80;;;9.40;99.90;;;;;;5056208;28;20851;-59
2024/02/27 03:17:38;;;;;;;1.73;0.80;;;9.50;99.90;;;;;;5058007;28;20531;-59
2024/02/27 03:20:09;;;;;;;1.35;0.88;;;9.50;1.00;;;;;;5074127;28;20423;-60
2024/02/27 03:22:36;;;;;;;2.25;0.90;;;9.50;99.90;;;;;;5073592;28;20431;-60
2024/02/27 03:25:05;;;;;;;3.15;1.00;;;9.30;1.00;;;;;;5073190;28;20542;-59
2024/02/27 03:27:32;;;;;;;1.55;0.90;;;9.10;1.00;;;;;;5074033;28;20442;-60
2024/02/27 03:30:00;;;;;;;2.10;0.90;;;9.00;99.90;;;;;;5069339;28;20433;-60
2024/02/27 03:32:27;;;;;;;1.80;0.90;;;9.00;99.90;;;;;;5054222;28;20459;-59
2024/02/27 03:34:54;;;;;;;2.00;1.00;;;8.90;99.90;;;;;;5054914;28;20839;-59
2024/02/27 03:37:21;;;;;;;3.40;1.10;;;9.10;42.60;;;;;;5055776;28;20516;-59
2024/02/27 03:39:48;;;;;;;1.55;1.00;;;9.20;1.00;;;;;;5055552;28;20500;-59
2024/02/27 03:42:15;;;;;;;1.50;0.80;;;9.40;99.90;;;;;;5055934;28;20441;-59
2024/02/27 03:44:46;;;;;;;4.75;1.00;;;9.40;99.90;;;;;;5055001;28;20520;-59
2024/02/27 03:47:14;;;;;;;1.80;1.00;;;9.40;99.90;;;;;;5055323;28;20440;-59
2024/02/27 03:49:41;;;;;;;1.67;0.90;;;9.30;99.90;;;;;;5055050;28;20527;-59
2024/02/27 03:52:08;;;;;;;1.88;0.90;;;9.30;69.60;;;;;;5055233;28;20476;-60
2024/02/27 03:54:35;;;;;;;1.90;0.90;;;9.20;57.80;;;;;;5055401;28;20707;-59
2024/02/27 03:57:02;;;;;;;2.13;1.00;;;9.10;99.90;;;;;;5055227;28;20823;-60
2024/02/27 03:59:29;;;;;;;2.03;0.90;;;9.10;99.90;;;;;;5055815;28;20514;-60
2024/02/27 04:01:56;;;;;;;2.10;0.90;;;9.20;99.90;;;;;;5055547;28;20770;-59
2024/02/27 04:04:24;;;;;;;2.50;1.00;;;9.20;99.90;;;;;;5055524;28;20437;-60
2024/02/27 04:06:51;;;;;;;1.70;0.90;;;9.30;99.90;;;;;;5057772;28;20448;-60
2024/02/27 04:09:18;;;;;;;1.85;1.00;;;9.30;99.90;;;;;;5060151;28;20472;-59
2024/02/27 04:11:45;;;;;;;2.38;1.00;;;9.20;99.90;;;;;;5059597;28;20519;-59
2024/02/27 04:14:11;;;;;;;1.90;0.90;;;9.20;99.90;;;;;;5059537;28;20456;-59
2024/02/27 04:16:39;;;;;;;2.20;1.10;;;9.20;99.90;;;;;;5058888;28;20453;-59
2024/02/27 04:19:07;;;;;;;1.60;0.80;;;9.20;1.00;;;;;;5072555;28;20435;-59
2024/02/27 04:21:35;;;;;;;2.65;1.15;;;9.10;99.90;;;;;;5079800;28;20515;-59
2024/02/27 04:24:02;;;;;;;1.88;1.00;;;9.10;99.90;;;;;;5079417;28;21015;-59
2024/02/27 04:26:28;;;;;;;3.05;1.10;;;9.10;99.90;;;;;;5078776;28;20896;-60
2024/02/27 04:28:55;;;;;;;2.83;0.97;;;9.10;1.00;;;;;;5079092;28;20427;-59
2024/02/27 04:31:22;;;;;;;2.03;1.10;;;9.10;99.90;;;;;;5079197;28;20459;-60
2024/02/27 04:33:49;;;;;;;1.60;0.90;;;9.10;99.90;;;;;;5079231;28;20422;-60
2024/02/27 04:36:16;;;;;;;2.00;1.00;;;9.10;99.90;;;;;;5078677;28;20841;-60
2024/02/27 04:38:44;;;;;;;1.70;1.10;;;9.20;99.90;;;;;;5079093;28;20434;-60
2024/02/27 04:41:11;;;;;;;2.72;1.15;;;9.10;99.90;;;;;;5078389;28;20521;-59
2024/02/27 04:43:38;;;;;;;2.13;1.10;;;9.10;99.90;;;;;;5073978;28;20647;-60
2024/02/27 04:46:05;;;;;;;3.88;1.00;;;9.10;99.90;;;;;;5056486;28;20468;-60
2024/02/27 04:48:32;;;;;;;2.03;1.10;;;9.00;99.90;;;;;;5056163;28;20413;-59
2024/02/27 04:50:59;;;;;;;3.60;1.10;;;9.10;99.90;;;;;;5055937;28;20453;-59
2024/02/27 04:53:26;;;;;;;3.00;1.20;;;9.30;1.00;;;;;;5056708;28;20425;-59
2024/02/27 04:55:54;;;;;;;2.50;1.10;;;9.30;99.90;;;;;;5057595;28;20515;-59
2024/02/27 04:58:21;;;;;;;2.30;1.10;;;9.20;99.90;;;;;;5058621;28;20460;-60
2024/02/27 05:00:47;;;;;;;3.30;1.10;;;9.10;99.90;;;;;;5058659;28;20437;-59
2024/02/27 05:03:14;;;;;;;1.95;1.00;;;9.10;1.00;;;;;;5058674;28;20449;-59
2024/02/27 05:05:41;;;;;;;1.90;1.20;;;9.00;1.00;;;;;;5057007;28;20468;-60
2024/02/27 05:08:08;;;;;;;2.60;1.10;;;9.00;1.00;;;;;;5058156;28;20542;-59
2024/02/27 05:10:35;;;;;;;2.55;1.20;;;9.00;1.00;;;;;;5058165;28;20511;-59
2024/02/27 05:13:03;;;;;;;2.08;1.10;;;9.00;1.00;;;;;;5058698;28;20453;-60
2024/02/27 05:15:30;;;;;;;2.08;1.10;;;8.90;1.00;;;;;;5058033;28;20453;-59
2024/02/27 05:17:57;;;;;;;2.25;1.10;;;8.90;99.90;;;;;;5055857;28;20425;-60
2024/02/27 05:20:24;;;;;;;2.70;1.00;;;9.00;99.90;;;;;;5057471;28;20890;-60
2024/02/27 05:22:51;;;;;;;2.50;1.20;;;9.00;99.90;;;;;;5057049;28;20439;-60
2024/02/27 05:25:17;;;;;;;3.03;1.20;;;9.00;99.90;;;;;;5058810;28;20548;-59
2024/02/27 05:27:45;;;;;;;2.85;1.20;;;9.00;99.90;;;;;;5062695;28;20504;-60
2024/02/27 05:30:14;;;;;;;2.05;1.10;;;9.00;99.90;;;;;;5057335;28;20483;-60
2024/02/27 05:32:41;;;;;;;2.78;1.10;;;9.00;99.90;;;;;;5058478;28;20461;-60
2024/02/27 05:35:09;;;;;;;4.95;1.30;;;9.20;99.90;;;;;;5057068;28;20499;-59
2024/02/27 05:37:36;;;;;;;2.30;1.30;;;9.20;90.20;;;;;;5057556;28;20464;-59
2024/02/27 05:40:05;;;;;;;2.67;1.30;;;9.10;99.90;;;;;;5057867;28;20457;-59
2024/02/27 05:42:32;;;;;;;3.10;1.30;;;9.10;99.90;;;;;;5057424;28;20807;-60
2024/02/27 05:44:59;;;;;;;2.97;1.63;;;9.10;99.90;;;;;;5057862;28;20535;-60
2024/02/27 05:47:28;;;;;;;3.30;1.33;;;9.00;99.90;;;;;;5058230;28;20428;-60
2024/02/27 05:49:55;;;;;;;3.10;1.40;;;8.90;1.00;;;;;;5057694;28;20445;-60
2024/02/27 05:52:21;;;;;;;3.17;1.50;;;8.90;21.60;;;;;;5056360;28;20460;-60
2024/02/27 05:54:48;;;;;;;3.90;1.85;;;9.00;1.00;;;;;;5057803;28;20503;-61
2024/02/27 05:57:15;;;;;;;3.30;1.60;;;9.00;1.00;;;;;;5057368;28;20476;-60
2024/02/27 05:59:42;;;;;;;3.05;1.60;;;8.90;99.90;;;;;;5057489;28;20508;-60
2024/02/27 06:02:10;;;;;;;6.30;1.90;;;8.90;1.00;;;;;;5057479;28;20431;-61
2024/02/27 06:04:38;;;;;;;3.20;1.70;;;8.90;99.90;;;;;;5054779;28;20477;-60
2024/02/27 06:07:05;;;;;;;4.68;1.50;;;9.10;1.00;;;;;;5056101;28;20500;-60
2024/02/27 06:09:32;;;;;;;4.10;2.00;;;9.00;84.30;;;;;;5055420;28;20421;-60
2024/02/27 06:11:58;;;;;;;2.97;1.93;;;9.10;1.00;;;;;;5055906;28;20515;-60
2024/02/27 06:14:26;;;;;;;4.20;1.73;;;9.10;1.00;;;;;;5056344;28;20425;-60
2024/02/27 06:16:53;;;;;;;4.60;1.60;;;9.10;1.00;;;;;;5054883;28;20428;-59
2024/02/27 06:19:22;;;;;;;4.90;2.10;;;8.90;1.00;;;;;;5055545;28;20769;-60
2024/02/27 06:24:34;;;;;;;4.10;1.70;;;8.90;99.90;;;;;;5054768;28;20773;-60
2024/02/27 06:27:01;;;;;;;3.20;1.70;;;8.90;99.90;;;;;;5054913;28;20839;-59
2024/02/27 06:29:29;;;;;;;4.45;2.00;;;8.80;1.00;;;;;;5055056;28;20439;-60
2024/02/27 06:31:56;;;;;;;5.95;2.17;;;8.80;1.00;;;;;;5053013;28;20455;-61
2024/02/27 06:34:23;;;;;;;5.80;2.67;;;8.80;1.00;;;;;;5052037;28;20429;-63
2024/02/27 06:36:53;;;;;;;4.78;2.50;;;8.70;1.00;;;;;;5047460;28;20461;-61
2024/02/27 06:39:20;;;;;;;3.63;2.10;;;8.70;1.00;;;;;;5050611;28;20439;-60
2024/02/27 06:41:49;;;;;;;4.90;2.50;;;8.80;1.00;;;;;;5055481;28;20491;-60
2024/02/27 06:44:15;;;;;;;5.45;1.83;;;8.70;1.00;;;;;;5054906;28;20437;-60
2024/02/27 06:46:42;;;;;;;5.85;2.63;;;8.70;1.00;;;;;;5054902;28;20516;-62
2024/02/27 06:49:09;;;;;;;7.40;1.90;;;8.70;1.00;;;;;;5053886;28;20621;-60
2024/02/27 06:51:37;;;;;;;5.20;3.05;;;8.90;99.90;;;;;;5054696;28;20500;-60
2024/02/27 06:54:05;;;;;;;5.05;2.10;;;8.80;99.90;;;;;;5054591;28;20486;-59
2024/02/27 06:56:32;;;;;;;4.75;2.70;;;8.90;1.00;;;;;;5055813;28;20483;-60
2024/02/27 06:58:59;;;;;;;5.75;1.80;;;8.80;99.90;;;;;;5055568;28;20429;-60
2024/02/27 07:01:26;;;;;;;4.13;1.90;;;8.80;1.00;;;;;;5056070;28;20504;-60
2024/02/27 07:03:53;;;;;;;6.32;3.50;;;9.00;99.90;;;;;;5055353;28;20496;-61
2024/02/27 07:06:20;;;;;;;5.93;2.47;;;9.10;1.00;;;;;;5054078;28;20443;-60
2024/02/27 07:08:50;;;;;;;6.43;2.30;;;9.20;1.00;;;;;;5054028;28;20464;-59
2024/02/27 07:11:18;;;;;;;5.70;2.13;;;9.20;1.00;;;;;;5052994;28;20425;-61
2024/02/27 07:13:45;;;;;;;6.45;2.22;;;9.30;99.90;;;;;;5053425;28;20449;-60
2024/02/27 07:16:12;;;;;;;6.43;2.80;;;9.30;1.00;;;;;;5052647;28;20478;-60
2024/02/27 07:18:39;;;;;;;5.03;2.50;;;9.30;99.90;;;;;;5052157;28;20421;-60
2024/02/27 07:21:06;;;;;;;6.38;3.47;;;9.30;1.00;;;;;;5052638;28;20422;-61
2024/02/27 07:23:33;;;;;;;5.80;2.78;;;9.40;99.90;;;;;;5053275;28;20702;-60
2024/02/27 07:26:00;;;;;;;5.18;2.80;;;9.40;99.90;;;;;;5054194;28;20866;-60
2024/02/27 07:28:28;;;;;;;7.53;3.30;;;9.40;99.90;;;;;;5054741;28;20413;-60
2024/02/27 07:30:55;;;;;;;7.67;2.77;;;9.40;99.90;;;;;;5054896;28;20512;-60
2024/02/27 07:33:23;;;;;;;6.43;2.90;;;9.50;99.90;;;;;;5050391;28;20421;-64
2024/02/27 07:35:52;;;;;;;5.97;3.08;;;9.50;59.40;;;;;;5053525;28;20428;-60
2024/02/27 07:38:19;;;;;;;7.35;2.65;;;9.60;1.00;;;;;;5052121;28;20434;-60
2024/02/27 07:40:46;;;;;;;5.30;2.20;;;9.40;96.70;;;;;;5053489;28;20508;-60
2024/02/27 07:43:13;;;;;;;5.88;2.90;;;9.40;99.90;;;;;;5074855;28;20438;-60
2024/02/27 07:45:41;;;;;;;5.30;3.33;;;9.20;99.90;;;;;;5058995;28;20498;-61
2024/02/27 07:48:08;;;;;;;7.40;3.22;;;9.00;99.90;;;;;;5057870;28;20843;-60
2024/02/27 07:50:35;;;;;;;6.00;3.38;;;9.00;1.00;;;;;;5058636;28;20482;-61
2024/02/27 07:53:02;;;;;;;5.30;3.25;;;9.10;1.00;;;;;;5057866;28;20512;-61
2024/02/27 07:55:29;;;;;;;5.63;2.42;;;9.10;99.90;;;;;;5058514;28;20511;-61
2024/02/27 07:57:56;;;;;;;4.93;2.33;;;9.30;1.00;;;;;;5057638;28;20417;-60
2024/02/27 08:00:23;;;;;;;6.80;2.90;;;9.40;99.90;;;;;;5058861;28;20507;-60
2024/02/27 08:02:51;;;;;;;8.40;3.70;;;9.50;99.90;;;;;;5057441;28;20511;-59
2024/02/27 08:05:20;;;;;;;7.13;2.85;;;9.60;6.30;;;;;;5058615;28;20451;-60
2024/02/27 08:07:47;;;;;;;5.15;3.10;;;9.70;1.00;;;;;;5057365;28;20511;-60
2024/02/27 08:10:14;;;;;;;8.30;3.50;;;9.80;1.00;;;;;;5058857;28;20453;-61
2024/02/27 08:12:41;;;;;;;4.15;2.30;;;10.00;1.00;;;;;;5055440;28;20460;-60
2024/02/27 08:15:08;;;;;;;5.63;3.35;;;10.10;1.00;;;;;;5055641;28;20421;-59
2024/02/27 08:17:35;;;;;;;6.57;3.40;;;10.30;1.00;;;;;;5058250;28;20433;-60
2024/02/27 08:20:04;;;;;;;6.40;3.03;;;10.40;1.00;;;;;;5058054;28;20574;-60
2024/02/27 08:22:31;;;;;;;6.95;3.22;;;10.30;1.00;;;;;;5077849;28;20533;-60
2024/02/27 08:24:58;;;;;;;8.18;3.30;;;10.20;1.00;;;;;;5065911;28;20507;-60
2024/02/27 08:27:25;;;;;;;6.83;3.77;;;9.80;1.00;;;;;;5055363;28;20453;-60
2024/02/27 08:29:52;;;;;;;8.18;4.30;;;9.90;1.00;;;;;;5056589;28;20471;-60
2024/02/27 08:32:20;;;;;;;6.07;3.88;;;9.80;1.00;;;;;;5068150;28;20459;-61
2024/02/27 08:34:47;;;;;;;5.65;3.78;;;9.90;1.00;;;;;;5077226;28;20730;-61
2024/02/27 08:37:15;;;;;;;7.63;3.30;;;9.90;1.00;;;;;;5060412;28;20486;-61
2024/02/27 08:39:42;;;;;;;8.15;3.60;;;10.00;1.00;;;;;;5058252;28;20502;-61
2024/02/27 08:42:09;;;;;;;7.53;2.92;;;9.90;1.00;;;;;;5057966;28;20718;-61
2024/02/27 08:44:36;;;;;;;6.18;3.50;;;10.00;1.00;;;;;;5056527;28;20519;-61
2024/02/27 08:47:03;;;;;;;8.65;3.47;;;9.80;1.00;;;;;;5055852;28;20440;-60
2024/02/27 08:49:30;;;;;;;9.40;3.33;;;9.90;1.00;;;;;;5056244;28;20457;-60
2024/02/27 08:51:57;;;;;;;7.82;3.58;;;9.90;1.00;;;;;;5056081;28;20412;-60
2024/02/27 08:54:26;;;;;;;5.00;2.85;;;9.80;1.00;;;;;;5055695;28;20421;-60
2024/02/27 08:56:52;;;;;;;7.20;3.60;;;10.00;1.00;;;;;;5054955;28;20862;-60
2024/02/27 08:59:19;;;;;;;7.32;3.17;;;10.20;1.00;;;;;;5058081;28;20432;-60
2024/02/27 09:01:46;;;;;;;7.05;3.80;;;10.30;1.00;;;;;;5058276;28;20791;-60
2024/02/27 09:04:13;;;;;;;7.13;3.70;;;10.20;1.00;;;;;;5058313;28;20858;-60
2024/02/27 09:06:42;;;;;;;7.20;3.78;;;10.30;1.00;;;;;;5058423;28;20433;-59
2024/02/27 09:09:09;;;;;;;10.13;4.28;;;10.40;1.00;;;;;;5065223;28;20502;-60
2024/02/27 09:11:37;;;;;;;7.22;4.30;;;10.20;1.00;;;;;;5078463;28;20780;-60
2024/02/27 09:14:05;;;;;;;8.48;4.20;;;10.00;1.00;;;;;;5070655;28;20521;-59
2024/02/27 09:16:32;;;;;;;8.40;3.70;;;9.80;1.00;;;;;;5057567;28;20961;-62
2024/02/27 09:18:59;;;;;;;8.77;3.70;;;9.70;86.60;;;;;;5057897;28;20470;-62
2024/02/27 09:21:26;;;;;;;6.70;3.65;;;9.60;99.90;;;;;;5057395;28;20902;-62
2024/02/27 09:23:54;;;;;;;7.03;3.53;;;9.60;1.00;;;;;;5058590;28;20425;-62
2024/02/27 09:26:21;;;;;;;8.95;4.32;;;9.70;1.00;;;;;;5075241;28;20427;-62
2024/02/27 09:28:50;;;;;;;6.10;3.40;;;9.80;1.00;;;;;;5078087;28;20514;-62
2024/02/27 09:31:17;;;;;;;7.00;3.72;;;9.80;91.30;;;;;;5076703;28;20522;-61
2024/02/27 09:33:43;;;;;;;6.95;3.50;;;10.00;1.00;;;;;;5077159;28;20838;-60
2024/02/27 09:36:13;;;;;;;7.40;3.20;;;9.80;19.70;;;;;;5054030;28;20424;-57
2024/02/27 09:38:41;;;;;;;6.93;4.55;;;10.10;1.00;;;;;;5047309;28;20779;-57
2024/02/27 09:41:17;;;;;;;6.07;3.35;;;10.20;99.90;;;;;;5048297;28;21053;-62
2024/02/27 09:43:50;;;;;;;6.03;3.93;;;10.50;33.90;;;;;;5056426;28;20900;-61
2024/02/27 09:46:22;;;;;;;7.50;3.30;;;10.60;1.00;;;;;;5039441;28;20489;-62
2024/02/27 09:48:50;;;;;;;5.75;3.60;;;10.60;99.90;;;;;;5036349;28;20686;-61
2024/02/27 09:51:19;;;;;;;5.60;3.25;;;10.50;1.00;;;;;;5036599;28;20869;-62
2024/02/27 09:53:48;;;;;;;6.05;3.60;;;10.40;99.90;;;;;;5032796;28;20439;-62
2024/02/27 09:56:16;;;;;;;7.10;4.65;;;10.60;1.00;;;;;;5051763;28;20511;-60
2024/02/27 09:58:44;;;;;;;7.93;3.80;;;10.60;1.00;;;;;;5052285;28;20758;-62
2024/02/27 10:01:13;;;;;;;8.85;3.58;;;10.40;1.00;;;;;;5028649;28;20527;-61
2024/02/27 10:03:45;;;;;;;5.75;3.13;;;10.30;1.00;;;;;;5022093;28;20439;-61
2024/02/27 10:06:14;;;;;;;6.10;3.60;;;10.30;99.90;;;;;;5033622;28;20460;-61
2024/02/27 10:08:47;;;;;;;6.78;3.92;;;10.60;1.00;;;;;;5032449;28;20806;-61
2024/02/27 10:11:14;;;;;;;7.80;3.57;;;10.70;1.00;;;;;;5022925;28;20768;-62
2024/02/27 10:13:42;;;;;;;6.82;4.53;;;10.70;99.90;;;;;;5028366;28;20517;-62
2024/02/27 10:16:09;;;;;;;8.65;4.22;;;10.60;99.90;;;;;;5030866;28;20439;-61
2024/02/27 10:18:36;;;;;;;6.65;4.40;;;10.50;99.90;;;;;;5019597;28;20428;-62
2024/02/27 10:21:06;;;;;;;7.60;3.75;;;10.40;99.30;;;;;;5035096;28;20912;-60
2024/02/27 10:23:33;;;;;;;7.20;3.37;;;10.40;99.90;;;;;;5035681;28;20427;-60
2024/02/27 10:26:08;;;;;;;6.63;3.97;;;10.40;99.90;;;;;;5033565;28;20538;-61
2024/02/27 10:28:36;;;;;;;10.85;4.55;;;10.50;99.90;;;;;;5034493;28;20525;-60
2024/02/27 10:31:09;;;;;;;7.30;4.28;;;10.40;99.90;;;;;;5035973;28;20845;-60
2024/02/27 10:33:38;;;;;;;6.03;3.20;;;10.40;1.00;;;;;;5028645;28;20439;-60
2024/02/27 10:36:09;;;;;;;8.15;3.53;;;10.40;99.90;;;;;;5030841;28;20844;-60
2024/02/27 10:38:36;;;;;;;6.72;3.83;;;10.50;99.90;;;;;;5027673;28;20443;-61
2024/02/27 10:41:03;;;;;;;8.35;4.60;;;10.50;99.90;;;;;;5035292;28;20514;-61
2024/02/27 10:43:32;;;;;;;8.23;5.00;;;10.60;99.90;;;;;;5034472;28;20852;-61
2024/02/27 10:45:59;;;;;;;9.38;4.30;;;10.60;62.80;;;;;;5052970;28;20734;-61
2024/02/27 10:48:29;;;;;;;8.73;4.57;;;10.60;99.90;;;;;;5054458;28;20424;-61
2024/02/27 10:50:56;;;;;;;7.78;4.38;;;10.40;12.50;;;;;;5055574;28;20433;-62
2024/02/27 10:53:29;;;;;;;8.45;3.80;;;10.30;1.00;;;;;;5063606;28;20447;-61
2024/02/27 10:55:57;;;;;;;9.10;3.90;;;10.40;99.90;;;;;;5075975;28;20762;-61
2024/02/27 10:58:27;;;;;;;8.55;5.60;;;10.50;99.90;;;;;;5076293;28;20514;-61
2024/02/27 11:00:56;;;;;;;8.80;4.28;;;10.60;99.90;;;;;;5071218;28;20473;-61
2024/02/27 11:03:24;;;;;;;7.70;5.47;;;10.60;99.90;;;;;;5063638;28;20429;-61
2024/02/27 11:05:52;;;;;;;9.00;4.05;;;10.50;1.00;;;;;;5055696;28;20487;-61
2024/02/27 11:08:19;;;;;;;9.25;5.00;;;10.60;50.70;;;;;;5054902;28;20548;-61
2024/02/27 11:10:48;;;;;;;8.13;3.93;;;10.70;1.00;;;;;;5054003;28;20452;-61
2024/02/27 11:13:19;;;;;;;6.88;4.07;;;10.80;10.90;;;;;;5055579;28;20429;-61
2024/02/27 11:15:48;;;;;;;7.30;4.72;;;11.00;1.00;;;;;;5054109;28;20892;-61
2024/02/27 11:18:22;;;;;;;5.43;3.50;;;11.10;1.00;;;;;;5054129;28;20417;-61
2024/02/27 11:20:49;;;;;;;8.50;3.90;;;11.20;1.00;;;;;;5055939;28;20514;-61
2024/02/27 11:23:17;;;;;;;7.18;4.40;;;11.30;1.00;;;;;;5049868;28;20434;-61
2024/02/27 11:25:44;;;;;;;7.65;4.53;;;11.40;1.00;;;;;;5050830;28;20885;-62
2024/02/27 11:28:13;;;;;;;7.80;5.03;;;11.30;1.00;;;;;;5054662;28;20516;-62
2024/02/27 11:30:40;;;;;;;8.00;4.68;;;11.20;1.00;;;;;;5074150;28;20527;-61
2024/02/27 11:33:09;;;;;;;8.57;4.57;;;11.20;1.00;;;;;;5073775;28;20407;-61
2024/02/27 11:35:37;;;;;;;8.90;4.55;;;11.10;1.00;;;;;;5066304;28;20439;-62
2024/02/27 11:38:07;;;;;;;7.05;4.30;;;11.20;1.00;;;;;;5042754;28;20427;-62
2024/02/27 11:40:47;;;;;;;9.47;5.80;;;11.00;1.00;;;;;;5033951;28;20518;-62
2024/02/27 11:43:16;;;;;;;7.15;4.68;;;11.30;1.00;;;;;;5033119;28;20908;-62
2024/02/27 11:45:43;;;;;;;9.35;5.40;;;11.40;1.00;;;;;;5053892;28;20425;-63
2024/02/27 11:48:10;;;;;;;9.63;4.85;;;11.20;1.00;;;;;;5052064;28;20782;-61
2024/02/27 11:50:46;;;;;;;10.32;5.75;;;11.30;1.00;;;;;;5052168;28;20524;-61
2024/02/27 11:53:32;;;;;;;8.63;5.03;;;11.20;1.00;;;;;;5052997;28;20772;-62
2024/02/27 11:56:02;;;;;;;8.23;5.85;;;11.40;1.00;;;;;;5032721;28;20512;-60
2024/02/27 11:58:31;;;;;;;10.80;5.63;;;11.40;1.00;;;;;;5033711;28;20445;-61
2024/02/27 12:00:58;;;;;;;8.30;5.53;;;11.40;1.00;;;;;;5034573;28;20532;-61
2024/02/27 12:03:26;;;;;;;9.68;5.40;;;11.40;1.00;;;;;;5034250;28;20433;-61
2024/02/27 12:06:03;;;;;;;8.02;5.30;;;11.60;1.00;;;;;;5036029;28;20435;-62
2024/02/27 12:08:31;;;;;;;9.50;6.15;;;11.70;1.00;;;;;;5054699;28;20425;-61
2024/02/27 12:10:58;;;;;;;9.37;5.80;;;11.60;1.00;;;;;;5054099;28;20508;-61
2024/02/27 12:13:26;;;;;;;9.75;5.57;;;11.50;1.00;;;;;;5044690;28;20773;-61
2024/02/27 12:15:58;;;;;;;11.45;7.00;;;11.40;1.00;;;;;;5041183;28;20880;-61
2024/02/27 12:18:26;;;;;;;10.83;5.83;;;11.40;1.00;;;;;;5033495;28;20426;-61
2024/02/27 12:20:55;;;;;;;9.95;5.95;;;11.30;1.00;;;;;;5034431;28;20438;-62
2024/02/27 12:23:22;;;;;;;8.20;5.15;;;11.30;1.00;;;;;;5039994;28;20437;-61
2024/02/27 12:25:49;;;;;;;10.63;6.15;;;11.20;1.00;;;;;;5052442;28;20867;-62
2024/02/27 12:28:17;;;;;;;11.73;6.32;;;11.10;1.00;;;;;;5039182;28;20470;-63
2024/02/27 12:30:47;;;;;;;9.38;5.60;;;11.20;1.00;;;;;;5048027;28;20425;-62
2024/02/27 12:33:17;;;;;;;9.20;4.93;;;11.20;1.00;;;;;;5057718;28;20436;-62
2024/02/27 12:35:44;;;;;;;8.75;5.72;;;11.10;1.00;;;;;;5058850;28;20425;-62
2024/02/27 12:38:12;;;;;;;10.38;6.07;;;11.20;1.00;;;;;;5058020;28;20460;-62
2024/02/27 12:40:39;;;;;;;11.90;6.28;;;11.20;1.00;;;;;;5062451;28;20516;-62
2024/02/27 12:43:07;;;;;;;10.38;6.75;;;11.20;1.00;;;;;;5055256;28;20516;-62
2024/02/27 12:45:34;;;;;;;11.15;6.28;;;11.20;1.00;;;;;;5054302;28;20483;-63
2024/02/27 12:48:00;;;;;;;10.80;5.00;;;11.20;1.00;;;;;;5056705;28;20437;-63
2024/02/27 12:50:29;;;;;;;9.80;5.43;;;11.20;1.00;;;;;;5053737;28;20765;-63
2024/02/27 12:52:58;;;;;;;11.80;5.40;;;11.10;1.00;;;;;;5055737;28;21022;-62
2024/02/27 12:55:25;;;;;;;9.05;5.68;;;11.10;1.00;;;;;;5051762;28;20438;-63
2024/02/27 12:57:53;;;;;;;10.68;5.68;;;11.10;1.00;;;;;;5051368;28;20499;-63
2024/02/27 13:00:22;;;;;;;11.95;5.90;;;11.20;1.00;;;;;;5038766;28;20518;-63
2024/02/27 13:02:53;;;;;;;11.50;6.05;;;11.40;1.00;;;;;;5038287;28;20510;-63